Time;durP1;ratioP1;P1;durP2;ratioP2;P2;SDS_P1;SDS_P2;PMS_P1;PMS_P2;Temp;Humidity;BMP_temperature;BMP_pressure;BME280_temperature;BME280_humidity;BME280_pressure;Samples;Min_cycle;Max_cycle;Signal;HPM_P1;HPM_P2
2021/07/22 00:02:13;;;;;;;;;21.25;15.50;;;;;25.35;48.62;101886.44;5080275;27;45397;-59
2021/07/22 00:04:39;;;;;;;;;20.00;13.75;;;;;25.33;48.70;101878.50;5062333;28;45685;-60
2021/07/22 00:07:05;;;;;;;;;17.75;15.25;;;;;25.30;48.60;101883.38;5061367;28;45311;-60
2021/07/22 00:09:30;;;;;;;;;17.25;15.25;;;;;25.28;49.39;101880.00;5081813;28;45303;-60
2021/07/22 00:11:56;;;;;;;;;17.50;14.00;;;;;25.24;49.14;101878.63;5081468;28;45354;-60
2021/07/22 00:14:21;;;;;;;;;19.25;17.00;;;;;25.20;48.90;101882.63;5079533;27;45258;-60
2021/07/22 00:16:46;;;;;;;;;23.75;18.75;;;;;25.17;49.45;101874.88;5059677;28;45413;-60
2021/07/22 00:19:12;;;;;;;;;21.50;16.50;;;;;25.14;49.29;101883.28;5061518;28;45294;-60
2021/07/22 00:21:38;;;;;;;;;14.00;13.50;;;;;25.11;49.46;101876.34;5070991;27;45280;-60
2021/07/22 00:24:04;;;;;;;;;21.50;16.25;;;;;25.09;49.29;101881.03;5067184;28;45258;-59
2021/07/22 00:26:29;;;;;;;;;18.75;16.00;;;;;25.05;49.13;101877.84;5061059;28;45235;-61
2021/07/22 00:28:56;;;;;;;;;22.75;19.25;;;;;25.04;49.53;101888.75;5060806;28;45169;-59
2021/07/22 00:31:22;;;;;;;;;18.50;16.50;;;;;25.04;49.55;101884.22;5081862;27;45532;-60
2021/07/22 00:33:47;;;;;;;;;18.25;16.25;;;;;25.03;49.48;101887.91;5060775;27;46319;-60
2021/07/22 00:36:13;;;;;;;;;16.25;15.50;;;;;25.01;50.03;101889.03;5065191;28;45306;-60
2021/07/22 00:38:38;;;;;;;;;21.00;15.50;;;;;24.97;49.51;101893.91;5061016;28;45324;-60
2021/07/22 00:41:05;;;;;;;;;18.75;17.00;;;;;24.95;50.01;101889.66;5060638;28;45433;-59
2021/07/22 00:43:30;;;;;;;;;23.25;20.00;;;;;24.91;49.67;101883.75;5080094;27;45299;-60
2021/07/22 00:45:56;;;;;;;;;18.50;18.25;;;;;24.89;49.71;101887.63;5067621;27;45323;-60
2021/07/22 00:48:21;;;;;;;;;14.25;14.25;;;;;24.86;49.72;101885.22;5070355;28;45377;-60
2021/07/22 00:50:47;;;;;;;;;16.00;16.00;;;;;24.85;49.75;101891.63;5067640;27;45521;-60
2021/07/22 00:53:12;;;;;;;;;16.75;13.25;;;;;24.81;49.63;101890.25;5060417;28;45449;-60
2021/07/22 00:55:38;;;;;;;;;17.00;15.75;;;;;24.79;49.83;101885.84;5091941;27;45222;-60
2021/07/22 00:58:03;;;;;;;;;21.75;18.75;;;;;24.76;50.11;101885.31;5060356;28;45287;-60
2021/07/22 01:00:29;;;;;;;;;15.00;14.50;;;;;24.73;49.78;101880.25;5060100;28;45519;-60
2021/07/22 01:02:54;;;;;;;;;20.75;17.00;;;;;24.72;49.94;101881.22;5060881;28;45203;-60
2021/07/22 01:05:20;;;;;;;;;19.00;16.50;;;;;24.71;50.59;101876.84;5064055;28;45310;-59
2021/07/22 01:07:45;;;;;;;;;21.00;16.75;;;;;24.70;50.53;101880.53;5064366;28;45222;-59
2021/07/22 01:10:11;;;;;;;;;18.50;15.75;;;;;24.69;50.69;101889.63;5064213;28;45240;-59
2021/07/22 01:12:36;;;;;;;;;15.75;13.25;;;;;24.68;50.62;101893.34;5064309;28;45225;-60
2021/07/22 01:15:02;;;;;;;;;17.00;16.25;;;;;24.65;50.67;101885.56;5063747;28;45368;-59
2021/07/22 01:17:43;;;;;;;;;14.00;13.00;;;;;24.62;50.66;101883.16;5064555;28;45369;-60
2021/07/22 01:20:11;;;;;;;;;18.00;14.50;;;;;24.58;50.37;101887.19;5063895;28;45259;-59
2021/07/22 01:22:37;;;;;;;;;15.25;13.75;;;;;24.55;50.63;101887.47;5063729;28;45405;-59
2021/07/22 01:25:03;;;;;;;;;19.00;15.50;;;;;24.50;50.79;101886.09;5063762;28;45441;-60
2021/07/22 01:27:28;;;;;;;;;12.50;12.50;;;;;24.47;50.85;101888.25;5064297;28;45334;-59
2021/07/22 01:29:54;;;;;;;;;17.25;16.50;;;;;24.45;50.54;101884.88;5063861;28;45417;-60
2021/07/22 01:32:19;;;;;;;;;19.00;14.50;;;;;24.42;50.91;101886.03;5063629;28;45447;-60
2021/07/22 01:34:45;;;;;;;;;18.00;15.50;;;;;24.39;50.56;101889.00;5063601;28;45385;-60
2021/07/22 01:37:10;;;;;;;;;15.75;13.25;;;;;24.37;50.87;101882.94;5063842;28;45243;-59
2021/07/22 01:39:36;;;;;;;;;14.50;14.00;;;;;24.36;51.09;101889.31;5063791;28;45357;-59
2021/07/22 01:42:01;;;;;;;;;14.75;13.50;;;;;24.32;50.70;101879.84;5063350;28;45662;-59
2021/07/22 01:44:28;;;;;;;;;18.50;17.00;;;;;24.27;50.95;101881.28;5075925;28;45322;-59
2021/07/22 01:46:53;;;;;;;;;16.25;14.00;;;;;24.20;51.46;101876.50;5083705;28;45445;-59
2021/07/22 01:49:19;;;;;;;;;18.00;16.75;;;;;24.20;51.39;101886.44;5083778;27;45282;-60
2021/07/22 01:51:44;;;;;;;;;15.75;14.75;;;;;24.17;51.17;101884.03;5083685;27;45541;-59
2021/07/22 01:54:10;;;;;;;;;19.75;17.50;;;;;24.12;51.61;101879.13;5083481;27;45282;-60
2021/07/22 01:56:35;;;;;;;;;20.00;14.00;;;;;24.09;51.57;101883.94;5065147;27;45255;-60
2021/07/22 01:59:01;;;;;;;;;17.00;16.00;;;;;24.07;51.33;101878.72;5063527;28;45431;-60
2021/07/22 02:01:26;;;;;;;;;17.75;14.00;;;;;24.04;51.89;101873.63;5062926;28;45302;-59
2021/07/22 02:03:52;;;;;;;;;17.75;16.75;;;;;24.00;51.69;101872.22;5063247;28;45173;-60
2021/07/22 02:06:17;;;;;;;;;20.25;18.00;;;;;23.97;51.79;101872.53;5063122;28;45504;-60
2021/07/22 02:08:42;;;;;;;;;21.50;18.75;;;;;23.96;51.49;101884.31;5063477;28;45483;-59
2021/07/22 02:11:08;;;;;;;;;21.00;17.00;;;;;23.92;52.06;101872.97;5063071;28;45874;-60
2021/07/22 02:13:33;;;;;;;;;20.25;19.50;;;;;23.91;52.16;101873.13;5063032;28;45560;-60
2021/07/22 02:15:59;;;;;;;;;18.00;17.75;;;;;23.90;52.12;101874.13;5062562;28;45266;-60
2021/07/22 02:18:24;;;;;;;;;17.50;16.50;;;;;23.88;52.11;101873.44;5063271;28;45473;-59
2021/07/22 02:20:50;;;;;;;;;19.75;16.75;;;;;23.88;52.34;101871.59;5062698;28;46136;-60
2021/07/22 02:23:15;;;;;;;;;22.50;19.50;;;;;23.86;52.12;101870.91;5062957;28;45350;-59
2021/07/22 02:25:41;;;;;;;;;21.75;17.75;;;;;23.86;52.35;101875.44;5062898;28;45402;-60
2021/07/22 02:28:07;;;;;;;;;19.25;15.75;;;;;23.83;52.59;101876.56;5063117;28;45527;-59
2021/07/22 02:30:33;;;;;;;;;19.50;18.00;;;;;23.82;52.53;101874.88;5062522;28;45297;-59
2021/07/22 02:32:58;;;;;;;;;18.50;17.50;;;;;23.82;52.71;101877.56;5062947;28;45212;-59
2021/07/22 02:35:23;;;;;;;;;21.25;18.75;;;;;23.82;52.42;101872.19;5062588;28;45418;-59
2021/07/22 02:37:49;;;;;;;;;23.75;20.75;;;;;23.81;52.14;101875.88;5062997;28;45503;-59
2021/07/22 02:40:14;;;;;;;;;21.50;21.50;;;;;23.81;52.71;101883.13;5062712;28;45990;-60
2021/07/22 02:42:40;;;;;;;;;23.25;20.25;;;;;23.77;52.34;101873.63;5062814;28;45303;-60
2021/07/22 02:45:06;;;;;;;;;20.25;20.25;;;;;23.75;52.69;101872.94;5080183;28;45479;-60
2021/07/22 02:47:31;;;;;;;;;20.75;18.25;;;;;23.72;52.65;101875.94;5082954;27;45723;-59
2021/07/22 02:49:58;;;;;;;;;19.00;16.25;;;;;23.71;52.39;101872.41;5082576;27;45314;-59
2021/07/22 02:52:23;;;;;;;;;21.50;20.00;;;;;23.71;52.59;101877.78;5082734;27;45314;-60
2021/07/22 02:54:49;;;;;;;;;19.50;16.75;;;;;23.71;52.43;101876.94;5078821;27;45289;-60
2021/07/22 02:57:14;;;;;;;;;20.00;18.00;;;;;23.71;52.96;101885.00;5062397;28;45287;-59
2021/07/22 02:59:40;;;;;;;;;21.75;19.75;;;;;23.69;52.60;101879.75;5061468;28;45294;-60
2021/07/22 03:02:05;;;;;;;;;22.75;19.25;;;;;23.68;52.17;101883.44;5061608;28;45334;-60
2021/07/22 03:04:31;;;;;;;;;22.25;19.00;;;;;23.65;52.29;101878.38;5061607;28;45379;-59
2021/07/22 03:06:56;;;;;;;;;20.00;19.00;;;;;23.65;52.43;101878.38;5062193;28;45344;-59
2021/07/22 03:09:22;;;;;;;;;19.25;18.00;;;;;23.65;52.64;101873.00;5062123;28;46007;-60
2021/07/22 03:11:47;;;;;;;;;22.75;19.75;;;;;23.65;52.49;101879.22;5061096;28;45317;-59
2021/07/22 03:14:13;;;;;;;;;26.25;20.25;;;;;23.64;53.14;101882.91;5062165;28;45321;-59
2021/07/22 03:16:38;;;;;;;;;18.50;16.25;;;;;23.57;52.74;101875.53;5062116;28;45319;-60
2021/07/22 03:19:04;;;;;;;;;19.75;18.00;;;;;23.53;53.45;101885.72;5062032;28;46134;-59
2021/07/22 03:21:30;;;;;;;;;24.50;21.00;;;;;23.47;53.61;101877.44;5061891;28;45365;-59
2021/07/22 03:23:55;;;;;;;;;22.75;19.50;;;;;23.47;53.40;101877.44;5062010;28;45300;-59
2021/07/22 03:26:21;;;;;;;;;18.00;17.00;;;;;23.47;53.52;101874.75;5061162;28;45556;-59
2021/07/22 03:28:46;;;;;;;;;21.50;17.25;;;;;23.45;53.78;101874.03;5061911;28;45907;-59
2021/07/22 03:31:11;;;;;;;;;22.50;20.50;;;;;23.42;53.47;101879.72;5061868;28;45204;-59
2021/07/22 03:33:37;;;;;;;;;17.75;17.00;;;;;23.39;53.56;101875.47;5061896;28;45347;-59
2021/07/22 03:36:03;;;;;;;;;20.00;16.25;;;;;23.34;53.76;101870.53;5061839;28;45392;-59
2021/07/22 03:38:29;;;;;;;;;24.50;19.00;;;;;23.35;53.51;101876.75;5061700;28;45383;-59
2021/07/22 03:40:54;;;;;;;;;22.25;21.00;;;;;23.36;53.52;101879.28;5061479;28;45373;-60
2021/07/22 03:43:19;;;;;;;;;20.25;17.75;;;;;23.36;53.79;101881.13;5064565;28;45506;-59
2021/07/22 03:45:45;;;;;;;;;18.25;16.25;;;;;23.34;54.07;101875.06;5082000;28;45314;-59
2021/07/22 03:48:12;;;;;;;;;20.75;18.75;;;;;23.34;53.59;101881.28;5081766;27;45315;-59
2021/07/22 03:50:38;;;;;;;;;23.25;18.75;;;;;23.30;53.98;101879.91;5081871;27;45271;-59
2021/07/22 03:53:04;;;;;;;;;19.50;16.75;;;;;23.26;53.87;101881.16;5081780;27;45430;-59
2021/07/22 03:55:29;;;;;;;;;18.50;18.00;;;;;23.25;53.94;101884.84;5072253;28;45298;-59
2021/07/22 03:57:58;;;;;;;;;21.50;20.25;;;;;23.22;54.00;101873.53;5061293;28;45341;-59
2021/07/22 04:00:24;;;;;;;;;19.00;18.00;;;;;23.18;54.20;101880.19;5061239;28;45297;-59
2021/07/22 04:03:01;;;;;;;;;21.00;20.00;;;;;23.16;54.43;101880.34;5061221;28;45311;-60
2021/07/22 04:05:27;;;;;;;;;21.75;18.00;;;;;23.12;54.18;101877.09;5061423;28;45363;-59
2021/07/22 04:07:59;;;;;;;;;21.25;18.00;;;;;23.09;54.41;101880.09;5061069;28;46175;-59
2021/07/22 04:10:26;;;;;;;;;19.25;18.00;;;;;23.07;53.88;101871.31;5061339;28;45451;-60
2021/07/22 04:13:01;;;;;;;;;21.00;17.75;;;;;23.07;54.15;101875.84;5060985;28;45264;-59
2021/07/22 04:15:27;;;;;;;;;25.75;20.00;;;;;23.04;54.00;101881.50;5060967;28;45369;-60
2021/07/22 04:17:53;;;;;;;;;16.50;14.50;;;;;23.03;54.47;101885.19;5061141;28;46584;-59
2021/07/22 04:20:19;;;;;;;;;24.00;18.00;;;;;23.01;53.82;101868.34;5060851;28;45275;-59
2021/07/22 04:22:45;;;;;;;;;21.00;18.00;;;;;23.02;53.92;101880.81;5061204;28;45302;-59
2021/07/22 04:25:10;;;;;;;;;18.00;16.25;;;;;23.01;54.18;101885.31;5061120;28;45545;-59
2021/07/22 04:27:36;;;;;;;;;17.00;16.00;;;;;23.02;53.53;101887.03;5067908;28;46030;-59
2021/07/22 04:30:02;;;;;;;;;17.00;16.00;;;;;23.02;53.67;101883.50;5081098;28;45433;-59
2021/07/22 04:32:27;;;;;;;;;23.00;18.00;;;;;23.02;53.51;101880.81;5081505;27;45227;-60
2021/07/22 04:34:53;;;;;;;;;19.00;17.50;;;;;23.00;53.48;101880.94;5081009;27;45566;-59
2021/07/22 04:37:18;;;;;;;;;17.75;16.25;;;;;23.00;53.58;101880.09;5080859;28;45388;-60
2021/07/22 04:39:44;;;;;;;;;19.00;16.25;;;;;23.00;53.58;101882.78;5081021;28;45329;-59
2021/07/22 04:42:09;;;;;;;;;20.00;18.75;;;;;23.02;53.42;101899.63;5081092;27;45587;-58
2021/07/22 04:44:35;;;;;;;;;22.25;16.75;;;;;23.02;53.65;101896.94;5076263;28;45300;-59
2021/07/22 04:47:00;;;;;;;;;18.00;17.25;;;;;23.03;53.25;101893.25;5060356;28;45332;-59
2021/07/22 04:49:26;;;;;;;;;14.00;13.25;;;;;23.04;53.58;101900.31;5060700;28;45386;-59
2021/07/22 04:51:51;;;;;;;;;18.25;16.75;;;;;23.05;53.74;101888.56;5060777;28;45256;-59
2021/07/22 04:54:16;;;;;;;;;19.25;17.25;;;;;23.06;53.44;101895.63;5069320;28;45407;-59
2021/07/22 04:56:42;;;;;;;;;20.75;16.00;;;;;23.08;53.46;101904.41;5060978;28;45324;-59
2021/07/22 04:59:08;;;;;;;;;20.75;17.25;;;;;23.08;53.46;101904.41;5060626;28;45325;-58
2021/07/22 05:01:33;;;;;;;;;19.75;17.75;;;;;23.07;53.69;101908.94;5060504;28;45228;-58
2021/07/22 05:03:59;;;;;;;;;18.75;16.00;;;;;23.08;53.53;101910.66;5060594;28;45271;-58
2021/07/22 05:06:25;;;;;;;;;17.25;16.75;;;;;23.08;53.84;101899.03;5060433;28;46235;-59
2021/07/22 05:08:51;;;;;;;;;18.25;18.25;;;;;23.09;53.86;101903.44;5060757;28;45185;-58
2021/07/22 05:11:16;;;;;;;;;22.75;16.75;;;;;23.10;53.89;101899.75;5060728;28;45313;-58
2021/07/22 05:13:42;;;;;;;;;22.75;19.75;;;;;23.10;53.67;101905.97;5060471;28;45311;-58
2021/07/22 05:16:08;;;;;;;;;24.50;21.75;;;;;23.10;53.84;101905.13;5059975;28;46362;-58
2021/07/22 05:18:34;;;;;;;;;16.75;16.25;;;;;23.10;53.97;101908.66;5060438;28;45414;-58
2021/07/22 05:21:03;;;;;;;;;23.00;20.25;;;;;23.11;53.92;101906.81;5060204;28;45402;-59
2021/07/22 05:23:29;;;;;;;;;20.00;15.50;;;;;23.13;53.76;101911.03;5060315;28;45295;-58
2021/07/22 05:25:55;;;;;;;;;22.25;17.25;;;;;23.13;53.54;101912.88;5060214;28;45634;-59
2021/07/22 05:28:20;;;;;;;;;21.75;17.00;;;;;23.14;53.55;101911.88;5060444;28;45238;-58
2021/07/22 05:30:46;;;;;;;;;19.00;17.75;;;;;23.19;53.70;101912.31;5060267;28;45532;-59
2021/07/22 05:33:11;;;;;;;;;21.50;17.75;;;;;23.25;53.59;101913.59;5060513;28;45236;-58
2021/07/22 05:35:37;;;;;;;;;18.75;17.00;;;;;23.28;53.23;101916.81;5059982;28;45304;-58
2021/07/22 05:38:02;;;;;;;;;16.50;16.50;;;;;23.31;52.75;101908.47;5060221;28;45631;-59
2021/07/22 05:40:28;;;;;;;;;16.25;16.25;;;;;23.38;53.03;101911.41;5060276;28;45520;-59
2021/07/22 05:42:54;;;;;;;;;18.00;17.25;;;;;23.46;52.97;101907.97;5060268;28;45393;-59
2021/07/22 05:45:20;;;;;;;;;19.25;18.75;;;;;23.54;52.38;101910.78;5079399;28;45485;-58
2021/07/22 05:47:45;;;;;;;;;18.75;17.00;;;;;23.59;52.63;101912.06;5080219;27;45459;-58
2021/07/22 05:50:11;;;;;;;;;17.75;17.00;;;;;23.66;52.32;101915.03;5082339;28;45396;-58
2021/07/22 05:52:36;;;;;;;;;21.50;19.00;;;;;23.73;52.28;101915.31;5084052;28;45262;-59
2021/07/22 05:55:02;;;;;;;;;20.75;17.75;;;;;23.79;51.81;101918.25;5077862;27;45489;-59
2021/07/22 05:57:28;;;;;;;;;19.50;17.75;;;;;23.86;52.17;101915.81;5063479;28;45645;-58
2021/07/22 05:59:53;;;;;;;;;17.00;14.75;;;;;23.89;51.72;101913.66;5063135;28;45298;-59
2021/07/22 06:02:19;;;;;;;;;18.00;18.00;;;;;23.98;51.57;101916.47;5063441;28;45622;-59
2021/07/22 06:04:44;;;;;;;;;20.00;15.75;;;;;24.06;51.82;101903.94;5063145;28;45971;-59
2021/07/22 06:07:10;;;;;;;;;22.00;17.25;;;;;24.12;51.68;101911.41;5063027;28;45173;-58
2021/07/22 06:09:35;;;;;;;;;20.50;17.50;;;;;24.18;51.68;101908.13;5063205;28;45402;-59
2021/07/22 06:12:01;;;;;;;;;22.00;18.25;;;;;24.22;51.37;101906.81;5063310;28;45553;-58
2021/07/22 06:14:26;;;;;;;;;19.00;18.25;;;;;24.29;51.18;101906.22;5062980;28;46183;-58
2021/07/22 06:16:52;;;;;;;;;20.75;17.50;;;;;24.32;50.78;101909.47;5062868;28;45169;-58
2021/07/22 06:19:17;;;;;;;;;22.50;19.25;;;;;24.40;51.27;101911.41;5061563;28;45439;-59
2021/07/22 06:21:43;;;;;;;;;18.00;18.00;;;;;24.45;50.84;101909.09;5063089;28;45341;-59
2021/07/22 06:24:08;;;;;;;;;19.00;19.00;;;;;24.52;50.28;101912.88;5062673;28;45584;-59
2021/07/22 06:26:34;;;;;;;;;19.00;17.25;;;;;24.59;50.14;101908.56;5062032;28;45407;-59
2021/07/22 06:29:01;;;;;;;;;20.25;18.00;;;;;24.62;50.36;101910.94;5062576;28;45416;-59
2021/07/22 06:31:27;;;;;;;;;23.25;21.75;;;;;24.67;50.63;101910.50;5062616;28;45438;-59
2021/07/22 06:33:52;;;;;;;;;20.75;19.00;;;;;24.74;50.11;101912.44;5062562;28;45330;-59
2021/07/22 06:36:17;;;;;;;;;18.00;16.25;;;;;24.79;50.21;101911.94;5062588;28;45357;-59
2021/07/22 06:38:43;;;;;;;;;17.50;14.25;;;;;24.87;49.80;101906.63;5062996;28;45479;-59
2021/07/22 06:41:10;;;;;;;;;22.25;19.25;;;;;24.94;49.32;101907.69;5062801;28;45528;-60
2021/07/22 06:43:36;;;;;;;;;19.00;17.50;;;;;24.94;49.74;101905.00;5067624;28;45992;-60
2021/07/22 06:46:01;;;;;;;;;20.75;17.75;;;;;24.94;49.39;101913.09;5082199;28;45335;-59
2021/07/22 06:48:27;;;;;;;;;23.75;22.25;;;;;24.98;48.88;101906.38;5083014;27;45173;-59
2021/07/22 06:50:52;;;;;;;;;19.25;16.00;;;;;25.07;49.66;101903.78;5082910;27;45535;-59
2021/07/22 06:53:18;;;;;;;;;17.75;16.50;;;;;25.16;49.21;101901.00;5082724;27;45992;-59
2021/07/22 06:55:43;;;;;;;;;18.75;15.50;;;;;25.21;48.83;101900.53;5082803;27;45263;-59
2021/07/22 06:58:09;;;;;;;;;22.50;21.50;;;;;25.26;48.51;101915.22;5082435;27;45410;-59
2021/07/22 07:00:35;;;;;;;;;17.00;16.00;;;;;25.27;48.33;101908.81;5082550;27;45575;-59
2021/07/22 07:03:03;;;;;;;;;20.25;18.75;;;;;25.21;47.96;101912.16;5082252;27;45421;-59
2021/07/22 07:05:30;;;;;;;;;21.25;17.00;;;;;25.17;47.88;101910.75;5082490;27;45333;-59
2021/07/22 07:07:55;;;;;;;;;20.25;18.25;;;;;25.18;48.35;101915.16;5082373;27;45222;-59
2021/07/22 07:10:21;;;;;;;;;20.00;18.75;;;;;25.21;48.01;101912.16;5082024;27;45382;-59
2021/07/22 07:12:46;;;;;;;;;22.25;19.00;;;;;25.26;48.13;101917.06;5081553;28;46090;-59
2021/07/22 07:15:12;;;;;;;;;25.25;21.75;;;;;25.26;47.75;101907.13;5081896;27;45334;-60
2021/07/22 07:17:37;;;;;;;;;20.75;16.00;;;;;25.26;48.24;101911.66;5082322;27;45263;-59
2021/07/22 07:20:03;;;;;;;;;21.75;16.25;;;;;25.26;48.26;101914.34;5081389;28;45437;-59
2021/07/22 07:22:29;;;;;;;;;18.00;15.00;;;;;25.29;48.07;101919.47;5082177;27;45909;-60
2021/07/22 07:24:54;;;;;;;;;53.50;40.25;;;;;25.33;47.87;101910.03;5082156;27;45381;-59
2021/07/22 07:27:20;;;;;;;;;22.00;19.00;;;;;25.39;47.56;101911.25;5082304;27;45514;-59
2021/07/22 07:29:45;;;;;;;;;22.00;19.00;;;;;25.44;47.53;101911.63;5082197;28;45316;-59
2021/07/22 07:32:10;;;;;;;;;23.75;20.50;;;;;25.47;48.19;101917.53;5082054;27;45996;-58
2021/07/22 07:34:36;;;;;;;;;21.25;19.75;;;;;25.54;47.62;101921.28;5081734;27;45434;-59
2021/07/22 07:37:02;;;;;;;;;18.00;17.75;;;;;25.55;47.04;101914.03;5082061;27;45293;-59
2021/07/22 07:39:27;;;;;;;;;21.50;17.50;;;;;25.57;47.27;101909.31;5082111;27;45379;-59
2021/07/22 07:41:54;;;;;;;;;21.00;18.75;;;;;25.58;46.29;101922.66;5080246;28;46258;-59
2021/07/22 07:44:19;;;;;;;;;21.25;19.25;;;;;25.59;46.03;101915.41;5076358;28;45248;-61
2021/07/22 07:46:45;;;;;;;;;22.75;21.25;;;;;25.65;45.90;101916.63;5080929;28;45227;-60
2021/07/22 07:49:10;;;;;;;;;16.75;14.50;;;;;25.68;46.20;101927.13;5081625;27;45415;-60
2021/07/22 07:51:36;;;;;;;;;19.50;18.00;;;;;25.72;46.55;101923.09;5081317;28;45400;-58
2021/07/22 07:54:01;;;;;;;;;20.00;16.50;;;;;25.75;45.67;101923.63;5081338;27;45270;-58
2021/07/22 07:56:27;;;;;;;;;15.50;14.75;;;;;25.79;45.76;101910.66;5063929;27;45233;-58
2021/07/22 07:58:52;;;;;;;;;17.50;14.25;;;;;25.81;45.08;101914.03;5061828;28;45448;-59
2021/07/22 08:01:18;;;;;;;;;19.75;16.50;;;;;25.77;44.79;101908.13;5061092;28;45399;-59
2021/07/22 08:03:43;;;;;;;;;22.00;17.00;;;;;25.72;44.89;101910.44;5061429;28;45256;-59
2021/07/22 08:06:09;;;;;;;;;17.50;16.00;;;;;25.74;44.06;101915.69;5061343;28;45371;-60
2021/07/22 08:08:34;;;;;;;;;16.25;15.75;;;;;25.78;44.77;101912.50;5061490;28;45428;-60
2021/07/22 08:11:00;;;;;;;;;14.00;13.50;;;;;25.81;44.40;101909.47;5076438;28;45347;-60
2021/07/22 08:13:26;;;;;;;;;23.75;18.00;;;;;25.83;44.31;101912.88;5060472;28;45322;-60
2021/07/22 08:15:52;;;;;;;;;21.75;17.75;;;;;25.89;44.86;101914.91;5060655;28;45236;-60
2021/07/22 08:18:17;;;;;;;;;14.25;13.50;;;;;25.93;43.81;101909.19;5061417;28;45249;-60
2021/07/22 08:20:43;;;;;;;;;15.75;15.00;;;;;25.94;43.65;101909.03;5060766;28;45275;-60
2021/07/22 08:23:08;;;;;;;;;17.75;15.75;;;;;25.95;43.34;101902.63;5060896;28;45216;-60
2021/07/22 08:25:36;;;;;;;;;16.25;15.00;;;;;25.94;43.41;101903.63;5061133;28;45359;-59
2021/07/22 08:28:02;;;;;;;;;15.75;15.00;;;;;25.95;43.03;101904.47;5061181;28;45638;-59
2021/07/22 08:30:27;;;;;;;;;19.25;16.75;;;;;25.96;43.73;101904.31;5060455;28;45258;-59
2021/07/22 08:32:53;;;;;;;;;18.00;16.75;;;;;25.98;43.55;101906.84;5060910;28;45389;-59
2021/07/22 08:35:18;;;;;;;;;19.00;15.00;;;;;25.98;43.73;101901.44;5060646;28;45311;-59
2021/07/22 08:37:44;;;;;;;;;17.25;15.00;;;;;25.96;44.07;101908.84;5059781;28;45520;-60
2021/07/22 08:40:13;;;;;;;;;19.00;15.75;;;;;25.99;44.12;101906.69;5060680;28;46374;-60
2021/07/22 08:42:40;;;;;;;;;19.25;15.25;;;;;26.03;43.95;101899.09;5060985;28;45251;-60
2021/07/22 08:45:07;;;;;;;;;22.50;19.50;;;;;26.08;43.77;101911.13;5078128;28;45326;-59
2021/07/22 08:47:32;;;;;;;;;16.50;16.00;;;;;26.10;43.20;101908.25;5080971;27;45221;-60
2021/07/22 08:49:58;;;;;;;;;18.75;16.50;;;;;26.11;43.39;101901.81;5080531;27;45442;-59
2021/07/22 08:52:23;;;;;;;;;18.75;16.00;;;;;26.20;43.60;101900.00;5080797;27;45326;-60
2021/07/22 08:54:49;;;;;;;;;18.50;17.75;;;;;26.26;43.26;101902.03;5076264;28;45228;-59
2021/07/22 08:57:15;;;;;;;;;19.25;18.00;;;;;26.30;43.57;101904.22;5060618;28;45259;-60
2021/07/22 08:59:41;;;;;;;;;17.00;15.50;;;;;26.35;43.14;101903.75;5058949;28;45371;-60
2021/07/22 09:02:06;;;;;;;;;19.50;16.25;;;;;26.39;42.90;101902.44;5060589;28;45366;-60
2021/07/22 09:05:08;;;;;;;;;18.00;16.50;;;;;26.40;42.60;101902.28;5060527;28;45271;-60
2021/07/22 09:07:33;;;;;;;;;17.25;15.25;;;;;26.37;43.25;101912.53;5033175;28;45359;-60
2021/07/22 09:10:20;;;;;;;;;15.00;14.00;;;;;26.38;43.33;101906.97;5055632;28;45356;-60
2021/07/22 09:12:54;;;;;;;;;17.25;16.25;;;;;26.44;43.54;101905.47;5060549;28;45293;-60
2021/07/22 09:15:27;;;;;;;;;18.75;16.25;;;;;26.47;43.46;101907.03;5060160;28;45322;-61
2021/07/22 09:17:52;;;;;;;;;20.25;18.00;;;;;26.50;43.02;101906.69;5060491;28;45456;-59
2021/07/22 09:20:31;;;;;;;;;18.75;15.50;;;;;26.51;43.19;101903.81;5060170;28;46347;-58
2021/07/22 09:23:00;;;;;;;;;19.25;17.50;;;;;26.53;42.81;101906.31;5068230;28;45272;-58
2021/07/22 09:25:45;;;;;;;;;18.00;17.25;;;;;26.53;43.00;101914.44;5083048;27;45221;-59
2021/07/22 09:28:20;;;;;;;;;15.25;14.75;;;;;26.56;42.86;101904.16;5084352;27;45526;-58
2021/07/22 09:30:55;;;;;;;;;25.00;23.50;;;;;26.62;43.26;101916.13;5083717;27;45261;-59
2021/07/22 09:33:33;;;;;;;;;15.75;13.75;;;;;26.66;42.73;101907.53;5083990;27;45187;-59
2021/07/22 09:35:59;;;;;;;;;21.00;14.50;;;;;26.68;43.17;101902.78;5084254;27;45359;-59
2021/07/22 09:38:25;;;;;;;;;19.25;17.50;;;;;26.77;43.08;101903.63;5082691;28;45576;-59
2021/07/22 09:40:51;;;;;;;;;20.75;19.25;;;;;26.81;42.76;101902.31;5084216;28;45234;-60
2021/07/22 09:43:37;;;;;;;;;16.75;16.75;;;;;26.88;42.55;101908.72;5077959;27;45346;-60
2021/07/22 09:46:02;;;;;;;;;16.25;15.25;;;;;26.90;42.70;101906.69;5082415;28;45339;-60
2021/07/22 09:48:28;;;;;;;;;25.50;19.75;;;;;26.96;42.84;101899.78;5083807;27;45487;-59
2021/07/22 09:50:53;;;;;;;;;17.75;14.75;;;;;27.03;42.36;101899.94;5082515;28;46126;-60
2021/07/22 09:53:20;;;;;;;;;14.00;14.00;;;;;27.06;42.34;101896.91;5083889;27;45299;-61
2021/07/22 09:55:46;;;;;;;;;17.75;15.75;;;;;27.07;42.09;101901.31;5071358;28;45321;-60
2021/07/22 09:58:12;;;;;;;;;17.75;17.00;;;;;27.09;41.98;101894.69;5081539;28;45161;-60
2021/07/22 10:00:40;;;;;;;;;19.25;17.25;;;;;27.14;42.16;101891.50;5083441;27;46241;-60
2021/07/22 10:03:08;;;;;;;;;15.75;12.75;;;;;27.16;41.78;101895.69;5083286;27;45488;-60
2021/07/22 10:05:38;;;;;;;;;18.75;16.00;;;;;27.16;42.01;101887.59;5083442;28;45201;-60
2021/07/22 10:08:03;;;;;;;;;17.25;15.75;;;;;27.22;42.30;101884.19;5083432;27;45365;-60
2021/07/22 10:10:29;;;;;;;;;15.25;15.25;;;;;27.30;41.97;101888.75;5083272;27;45906;-60
2021/07/22 10:13:01;;;;;;;;;16.50;16.50;;;;;27.36;41.58;101882.66;5083324;27;45317;-60
2021/07/22 10:15:36;;;;;;;;;16.75;14.00;;;;;27.40;41.71;101883.97;5083116;27;45236;-60
2021/07/22 10:18:03;;;;;;;;;18.00;15.75;;;;;27.47;42.32;101876.03;5082205;28;45415;-61
2021/07/22 10:20:30;;;;;;;;;13.25;11.50;;;;;27.53;42.09;101873.47;5083004;27;46140;-61
2021/07/22 10:22:56;;;;;;;;;16.50;15.25;;;;;27.60;42.35;101868.19;5083078;27;45399;-60
2021/07/22 10:25:21;;;;;;;;;18.50;17.25;;;;;27.69;41.70;101875.28;5082980;27;45263;-60
2021/07/22 10:27:47;;;;;;;;;14.50;14.25;;;;;27.78;41.45;101868.81;5082111;28;45476;-59
2021/07/22 10:30:16;;;;;;;;;19.25;15.00;;;;;27.80;41.20;101869.47;5082631;28;45733;-60
2021/07/22 10:32:44;;;;;;;;;17.25;14.75;;;;;27.79;40.97;101861.53;5083112;27;45310;-60
2021/07/22 10:35:10;;;;;;;;;18.00;15.00;;;;;27.84;41.00;101866.44;5082343;28;45357;-60
2021/07/22 10:37:35;;;;;;;;;12.25;11.00;;;;;27.87;40.54;101857.94;5081902;28;45414;-60
2021/07/22 10:40:05;;;;;;;;;12.75;12.25;;;;;27.90;41.11;101855.75;5081410;28;45495;-60
2021/07/22 10:42:47;;;;;;;;;13.00;13.00;;;;;28.00;40.66;101852.81;5081466;27;45295;-60
2021/07/22 10:45:21;;;;;;;;;16.25;14.50;;;;;28.06;40.87;101849.38;5081044;28;45346;-60
2021/07/22 10:47:59;;;;;;;;;15.25;14.75;;;;;28.09;40.70;101851.72;5082878;27;45405;-60
2021/07/22 10:50:37;;;;;;;;;14.75;12.50;;;;;28.15;40.27;101842.06;5082426;27;45327;-61
2021/07/22 10:53:03;;;;;;;;;15.50;15.00;;;;;28.20;40.38;101842.34;5082482;27;45205;-61
2021/07/22 10:55:54;;;;;;;;;13.50;11.50;;;;;28.23;39.70;101844.72;5073042;27;45385;-60
2021/07/22 10:58:33;;;;;;;;;18.00;14.50;;;;;28.21;40.01;101850.31;5060838;28;45386;-60
2021/07/22 11:01:01;;;;;;;;;13.50;13.50;;;;;28.19;39.69;101844.19;5061620;28;45357;-60
2021/07/22 11:03:33;;;;;;;;;19.75;15.25;;;;;28.18;40.13;101842.53;5061974;28;45386;-60
2021/07/22 11:05:59;;;;;;;;;16.00;14.50;;;;;28.18;39.78;101844.41;5061789;28;45448;-60
2021/07/22 11:08:29;;;;;;;;;13.50;12.50;;;;;28.20;39.46;101836.91;5062202;28;45417;-61